Time;durP1;ratioP1;P1;durP2;ratioP2;P2;SDS_P1;SDS_P2;PMS_P1;PMS_P2;Temp;Humidity;BMP_temperature;BMP_pressure;BME280_temperature;BME280_humidity;BME280_pressure;Samples;Min_cycle;Max_cycle;Signal;HPM_P1;HPM_P2
2024/03/31 00:00:12;;;;;;;7.13;3.92;;;10.70;99.90;;;;;;5014200;28;20026;-76
2024/03/31 00:02:38;;;;;;;11.65;3.03;;;10.70;99.90;;;;;;5015115;28;20052;-77
2024/03/31 00:05:05;;;;;;;13.00;4.82;;;10.70;99.90;;;;;;5012930;28;20034;-76
2024/03/31 00:07:30;;;;;;;12.00;4.75;;;10.70;99.90;;;;;;5012774;28;20025;-77
2024/03/31 00:09:57;;;;;;;15.23;4.22;;;10.70;99.90;;;;;;5013138;28;20486;-76
2024/03/31 00:12:23;;;;;;;23.75;4.97;;;10.80;99.90;;;;;;5012200;28;20034;-76
2024/03/31 00:14:48;;;;;;;14.50;3.97;;;10.80;99.90;;;;;;4995940;28;20040;-76
2024/03/31 00:17:14;;;;;;;19.75;3.58;;;10.80;99.90;;;;;;5013320;28;20045;-77
2024/03/31 00:19:40;;;;;;;11.07;3.40;;;10.80;99.90;;;;;;4990915;28;20035;-76
2024/03/31 00:22:06;;;;;;;15.77;4.40;;;10.90;99.90;;;;;;4993529;28;20048;-76
2024/03/31 00:24:32;;;;;;;13.18;3.50;;;10.90;99.90;;;;;;4992578;28;20022;-76
2024/03/31 00:26:58;;;;;;;8.18;3.55;;;10.90;99.90;;;;;;4995668;28;20025;-76
2024/03/31 00:29:23;;;;;;;11.73;4.22;;;10.90;99.90;;;;;;5012547;28;20026;-77
2024/03/31 00:31:49;;;;;;;21.67;3.85;;;10.90;99.90;;;;;;5014903;28;20057;-77
2024/03/31 00:34:16;;;;;;;5.55;2.53;;;10.90;99.90;;;;;;5012145;28;20034;-77
2024/03/31 00:36:44;;;;;;;15.82;4.20;;;10.90;99.90;;;;;;5005129;28;20398;-78
2024/03/31 00:39:09;;;;;;;11.00;4.63;;;10.90;99.90;;;;;;5013195;28;20112;-78
2024/03/31 00:41:35;;;;;;;18.58;3.30;;;11.00;99.90;;;;;;5010434;28;20113;-78
2024/03/31 00:44:02;;;;;;;21.73;4.55;;;11.00;99.90;;;;;;5009720;28;20096;-78
2024/03/31 00:46:28;;;;;;;8.30;3.25;;;11.00;99.90;;;;;;5006103;28;20018;-78
2024/03/31 00:48:54;;;;;;;10.10;4.10;;;11.00;99.90;;;;;;5012396;28;20061;-78
2024/03/31 00:51:20;;;;;;;9.65;3.80;;;10.90;99.90;;;;;;5013912;28;20109;-77
2024/03/31 00:53:46;;;;;;;12.95;2.97;;;10.80;99.90;;;;;;5012675;28;20486;-77
2024/03/31 00:56:12;;;;;;;16.70;3.50;;;10.70;99.90;;;;;;5011987;28;20116;-77
2024/03/31 00:58:38;;;;;;;15.07;5.32;;;10.70;99.90;;;;;;5011580;28;20037;-79
2024/03/31 01:01:04;;;;;;;17.88;3.60;;;10.60;99.90;;;;;;5013610;28;20115;-77
2024/03/31 01:03:37;;;;;;;12.65;3.80;;;10.50;99.90;;;;;;5012764;28;20451;-78
2024/03/31 01:06:16;;;;;;;31.08;4.60;;;10.50;99.90;;;;;;5009751;28;20128;-77
2024/03/31 01:08:42;;;;;;;8.68;3.20;;;10.50;99.90;;;;;;5012678;28;20137;-77
2024/03/31 01:11:09;;;;;;;16.20;4.35;;;10.40;99.90;;;;;;5014719;28;20083;-77
2024/03/31 01:13:35;;;;;;;20.33;4.35;;;10.30;99.90;;;;;;5011853;28;20517;-77
2024/03/31 01:16:01;;;;;;;19.40;5.25;;;10.30;99.90;;;;;;5008319;28;20080;-76
2024/03/31 01:18:27;;;;;;;9.00;4.18;;;10.20;99.90;;;;;;5004045;28;20040;-78
2024/03/31 01:20:53;;;;;;;10.02;3.97;;;10.20;99.90;;;;;;5013201;28;20108;-77
2024/03/31 01:23:26;;;;;;;12.23;4.75;;;10.20;99.90;;;;;;5011075;28;20037;-77
2024/03/31 01:25:52;;;;;;;15.23;4.70;;;10.20;99.90;;;;;;5007966;28;20034;-77
2024/03/31 01:28:18;;;;;;;12.82;4.35;;;10.20;99.90;;;;;;5008510;28;20033;-77
2024/03/31 01:30:44;;;;;;;17.38;4.75;;;10.20;99.90;;;;;;4998033;28;20034;-77
2024/03/31 01:33:10;;;;;;;9.50;3.72;;;10.20;99.90;;;;;;5008851;28;20517;-77
2024/03/31 01:35:36;;;;;;;9.65;4.28;;;10.20;99.90;;;;;;5010361;28;20557;-76
2024/03/31 01:38:02;;;;;;;11.95;5.05;;;10.20;99.90;;;;;;5010041;28;20121;-77
2024/03/31 01:40:28;;;;;;;22.50;5.97;;;10.30;99.90;;;;;;5006960;28;20042;-77
2024/03/31 01:42:53;;;;;;;16.73;4.35;;;10.30;99.90;;;;;;5007999;28;20064;-77
2024/03/31 01:45:19;;;;;;;12.38;3.92;;;10.30;99.90;;;;;;5008722;28;20026;-76
2024/03/31 01:47:45;;;;;;;8.00;4.00;;;10.40;99.90;;;;;;5009908;28;20037;-77
2024/03/31 01:50:11;;;;;;;15.90;3.95;;;10.40;99.90;;;;;;5012062;28;20029;-77
2024/03/31 01:52:37;;;;;;;20.08;3.50;;;10.40;99.90;;;;;;5012090;28;20030;-76
2024/03/31 01:55:03;;;;;;;21.55;4.20;;;10.40;99.90;;;;;;5011906;28;20041;-76
2024/03/31 01:57:28;;;;;;;10.73;3.75;;;10.30;99.90;;;;;;5013566;28;20032;-76
2024/03/31 01:59:54;;;;;;;9.07;3.42;;;10.30;99.90;;;;;;5008272;28;20092;-76
2024/03/31 02:02:20;;;;;;;15.60;4.00;;;10.30;99.90;;;;;;5011729;28;20083;-76
2024/03/31 02:04:45;;;;;;;10.95;3.72;;;10.30;99.90;;;;;;5009890;28;20030;-76
2024/03/31 02:07:11;;;;;;;9.82;4.13;;;10.30;99.90;;;;;;5007880;28;20028;-76
2024/03/31 02:09:37;;;;;;;19.95;5.45;;;10.20;99.90;;;;;;5012050;28;20529;-76
2024/03/31 02:12:03;;;;;;;12.73;5.55;;;10.10;99.90;;;;;;5011349;28;20059;-77
2024/03/31 02:14:29;;;;;;;16.23;4.07;;;10.10;99.90;;;;;;5006648;28;20037;-76
2024/03/31 02:16:55;;;;;;;6.15;3.75;;;10.10;99.90;;;;;;5011655;28;20086;-76
2024/03/31 02:19:24;;;;;;;8.30;4.18;;;10.10;99.90;;;;;;5008202;28;20442;-76
2024/03/31 02:21:51;;;;;;;8.55;3.95;;;10.10;99.90;;;;;;5011296;28;20398;-77
2024/03/31 02:24:17;;;;;;;5.60;3.60;;;10.00;99.90;;;;;;5002366;28;20026;-76
2024/03/31 02:26:42;;;;;;;7.60;4.05;;;10.00;99.90;;;;;;5003038;28;20041;-76
2024/03/31 02:29:10;;;;;;;18.90;3.78;;;9.90;99.90;;;;;;5009156;28;20034;-76
2024/03/31 02:31:36;;;;;;;17.90;4.40;;;9.90;99.90;;;;;;5007341;28;20040;-76
2024/03/31 02:34:02;;;;;;;18.50;3.65;;;9.90;99.90;;;;;;5009227;28;20037;-76
2024/03/31 02:36:28;;;;;;;20.48;4.63;;;9.90;99.90;;;;;;5011289;28;20073;-76
2024/03/31 02:38:54;;;;;;;21.50;4.90;;;9.90;99.90;;;;;;5005142;28;20108;-76
2024/03/31 02:41:20;;;;;;;11.50;4.20;;;9.90;99.90;;;;;;5008677;28;20037;-76
2024/03/31 02:43:46;;;;;;;9.40;4.03;;;9.80;99.90;;;;;;4987103;28;20026;-76
2024/03/31 02:46:11;;;;;;;8.00;3.58;;;9.80;99.90;;;;;;5011122;28;20101;-76
2024/03/31 02:48:37;;;;;;;13.32;3.67;;;9.80;99.90;;;;;;5011049;28;20034;-76
2024/03/31 02:51:03;;;;;;;4.50;2.95;;;9.80;99.90;;;;;;5008633;28;20040;-77
2024/03/31 02:53:29;;;;;;;7.60;3.03;;;9.80;99.90;;;;;;5006498;28;20030;-76
2024/03/31 02:55:54;;;;;;;4.63;2.67;;;9.80;99.90;;;;;;4996042;28;20035;-77
2024/03/31 02:58:20;;;;;;;10.73;2.92;;;9.80;99.90;;;;;;5009503;28;20038;-76
2024/03/31 03:00:46;;;;;;;5.30;2.97;;;9.80;99.90;;;;;;5006471;28;20034;-77
2024/03/31 03:03:11;;;;;;;27.67;4.93;;;9.70;99.90;;;;;;5010596;28;20486;-77
2024/03/31 03:05:37;;;;;;;18.42;3.40;;;9.80;99.90;;;;;;5002005;28;20034;-76
2024/03/31 03:08:03;;;;;;;23.10;3.60;;;9.80;99.90;;;;;;5002224;28;20060;-77
2024/03/31 03:10:29;;;;;;;7.75;3.55;;;9.70;99.90;;;;;;5011659;28;20038;-77
2024/03/31 03:12:54;;;;;;;16.83;4.85;;;9.80;99.90;;;;;;5014011;28;20033;-77
2024/03/31 03:15:20;;;;;;;7.88;3.90;;;9.90;99.90;;;;;;5012111;28;20117;-76
2024/03/31 03:17:47;;;;;;;11.63;3.58;;;9.90;99.90;;;;;;5016273;28;20070;-77
2024/03/31 03:20:13;;;;;;;23.08;4.05;;;9.90;99.90;;;;;;5015573;28;20391;-77
2024/03/31 03:22:39;;;;;;;12.60;4.40;;;9.90;99.90;;;;;;5013319;28;20022;-76
2024/03/31 03:25:05;;;;;;;17.48;4.25;;;9.80;99.90;;;;;;5014791;28;20036;-77
2024/03/31 03:27:30;;;;;;;5.38;2.60;;;9.80;99.90;;;;;;5011551;28;20068;-76
2024/03/31 03:29:56;;;;;;;13.50;4.00;;;9.80;99.90;;;;;;5010803;28;20482;-77
2024/03/31 03:32:22;;;;;;;12.15;4.18;;;9.70;99.90;;;;;;5014418;28;20018;-77
2024/03/31 03:34:51;;;;;;;6.05;2.70;;;9.80;99.90;;;;;;5011217;28;20060;-77
2024/03/31 03:37:16;;;;;;;12.38;3.72;;;9.70;99.90;;;;;;5012695;28;20050;-76
2024/03/31 03:39:42;;;;;;;8.57;3.45;;;9.70;99.90;;;;;;5010783;28;20054;-77
2024/03/31 03:42:08;;;;;;;8.18;3.30;;;9.70;99.90;;;;;;5012656;28;20041;-77
2024/03/31 03:44:33;;;;;;;11.05;3.80;;;9.70;99.90;;;;;;5007832;28;20144;-77
2024/03/31 03:46:59;;;;;;;9.05;3.80;;;9.70;99.90;;;;;;4997012;28;20029;-77
2024/03/31 03:49:25;;;;;;;5.50;2.80;;;9.90;99.90;;;;;;5017788;28;20030;-77
2024/03/31 03:51:52;;;;;;;8.57;2.63;;;9.90;99.90;;;;;;5012826;28;20037;-77
2024/03/31 03:54:18;;;;;;;11.65;2.83;;;9.80;99.90;;;;;;5012703;28;20037;-77
2024/03/31 03:56:44;;;;;;;9.07;2.80;;;9.90;99.90;;;;;;5004785;28;20030;-76
2024/03/31 03:59:12;;;;;;;10.57;4.15;;;10.00;99.90;;;;;;5013848;28;20034;-77
2024/03/31 04:01:38;;;;;;;6.90;3.25;;;10.00;99.90;;;;;;5008300;28;20027;-77
2024/03/31 04:04:04;;;;;;;15.40;3.67;;;9.90;99.90;;;;;;4994057;28;20501;-77
2024/03/31 04:06:30;;;;;;;14.00;3.75;;;9.90;99.90;;;;;;5012787;28;20021;-77
2024/03/31 04:08:56;;;;;;;5.70;2.83;;;9.90;99.90;;;;;;5017444;28;20026;-77
2024/03/31 04:11:23;;;;;;;10.35;4.07;;;9.80;99.90;;;;;;5008578;28;20052;-77
2024/03/31 04:13:49;;;;;;;8.90;3.42;;;9.80;99.90;;;;;;4975718;28;20050;-77
2024/03/31 04:16:15;;;;;;;12.80;3.75;;;9.70;99.90;;;;;;4978623;28;20046;-76
2024/03/31 04:18:41;;;;;;;11.88;2.80;;;9.60;99.90;;;;;;4984009;28;20046;-77
2024/03/31 04:21:08;;;;;;;7.35;2.85;;;9.60;99.90;;;;;;5000342;28;20046;-75
2024/03/31 04:23:36;;;;;;;8.27;3.50;;;9.50;99.90;;;;;;4980045;28;20390;-76
2024/03/31 04:26:02;;;;;;;12.57;3.78;;;9.50;99.90;;;;;;5007463;28;20077;-75
2024/03/31 04:28:28;;;;;;;14.77;4.25;;;9.50;99.90;;;;;;4980992;28;20065;-76
2024/03/31 04:30:54;;;;;;;5.38;2.88;;;9.50;99.90;;;;;;5006839;28;20153;-76
2024/03/31 04:33:19;;;;;;;15.82;3.70;;;9.50;99.90;;;;;;4985710;28;20034;-76
2024/03/31 04:35:45;;;;;;;9.82;2.97;;;9.50;99.90;;;;;;5004726;28;20033;-76
2024/03/31 04:38:11;;;;;;;12.05;3.55;;;9.40;99.90;;;;;;4991050;28;20124;-76
2024/03/31 04:40:36;;;;;;;5.47;2.90;;;9.40;99.90;;;;;;4999978;28;20169;-76
2024/03/31 04:43:02;;;;;;;12.82;3.13;;;9.40;99.90;;;;;;5008911;28;20045;-76
2024/03/31 04:45:29;;;;;;;17.42;4.88;;;9.40;99.90;;;;;;5012604;28;20030;-76
2024/03/31 04:47:55;;;;;;;10.95;3.20;;;9.40;99.90;;;;;;4994056;28;20539;-76
2024/03/31 04:50:21;;;;;;;9.10;3.60;;;9.50;99.90;;;;;;5010046;28;20060;-76
2024/03/31 04:52:47;;;;;;;5.47;3.20;;;9.50;99.90;;;;;;5011916;28;20033;-76
2024/03/31 04:55:13;;;;;;;13.75;5.57;;;9.50;99.90;;;;;;5005165;28;20080;-76
2024/03/31 04:57:40;;;;;;;8.07;3.33;;;9.60;99.90;;;;;;5011072;28;20104;-76
2024/03/31 05:00:10;;;;;;;10.23;3.28;;;9.50;99.90;;;;;;5004820;28;20490;-75
2024/03/31 05:02:36;;;;;;;28.58;4.53;;;9.60;99.90;;;;;;5012733;28;20014;-75
2024/03/31 05:05:01;;;;;;;13.02;4.20;;;9.60;99.90;;;;;;5009739;28;20076;-75
2024/03/31 05:07:28;;;;;;;13.13;3.63;;;9.60;99.90;;;;;;5006831;28;20072;-75
2024/03/31 05:09:53;;;;;;;7.47;3.83;;;9.60;99.90;;;;;;5024467;23;20445;-76
2024/03/31 05:12:19;;;;;;;14.63;4.80;;;9.60;99.90;;;;;;5010203;28;20026;-75
2024/03/31 05:14:45;;;;;;;8.65;3.60;;;9.60;99.90;;;;;;5007249;28;20026;-73
2024/03/31 05:17:10;;;;;;;14.90;4.47;;;9.60;99.90;;;;;;5006098;28;20030;-74
2024/03/31 05:19:36;;;;;;;10.35;3.83;;;9.60;99.90;;;;;;5006199;28;20026;-73
2024/03/31 05:22:02;;;;;;;16.25;4.22;;;9.60;99.90;;;;;;5020167;28;20398;-73
2024/03/31 05:24:28;;;;;;;12.55;4.28;;;9.60;99.90;;;;;;5005581;28;20034;-73
2024/03/31 05:26:53;;;;;;;9.45;3.90;;;9.70;99.90;;;;;;5007620;28;20437;-74
2024/03/31 05:29:20;;;;;;;13.23;3.72;;;9.70;99.90;;;;;;5006283;28;20026;-75
2024/03/31 05:31:46;;;;;;;15.63;4.50;;;9.70;99.90;;;;;;5001383;28;20113;-73
2024/03/31 05:34:12;;;;;;;12.43;3.35;;;9.70;99.90;;;;;;5009781;28;20042;-75
2024/03/31 05:36:38;;;;;;;19.50;4.13;;;9.70;99.90;;;;;;4994772;28;20039;-74
2024/03/31 05:39:03;;;;;;;11.23;4.78;;;9.60;99.90;;;;;;5011935;28;20438;-74
2024/03/31 05:41:29;;;;;;;19.58;5.43;;;9.70;99.90;;;;;;5012380;28;20022;-74
2024/03/31 05:43:55;;;;;;;16.02;3.83;;;9.70;99.90;;;;;;5004247;28;20061;-73
2024/03/31 05:46:21;;;;;;;11.25;4.10;;;9.70;99.90;;;;;;5011536;28;20045;-73
2024/03/31 05:48:48;;;;;;;16.42;4.35;;;9.70;99.90;;;;;;5010751;28;20129;-75
2024/03/31 05:51:13;;;;;;;8.52;4.60;;;9.80;99.90;;;;;;5010279;28;20563;-77
2024/03/31 05:53:39;;;;;;;16.13;4.38;;;9.80;99.90;;;;;;5003770;28;20042;-75
2024/03/31 05:56:05;;;;;;;16.40;4.22;;;9.90;99.90;;;;;;5011799;28;20026;-72
2024/03/31 05:58:31;;;;;;;13.98;4.35;;;9.80;99.90;;;;;;5010669;28;20022;-73
2024/03/31 06:00:57;;;;;;;17.00;4.13;;;9.90;99.90;;;;;;5009760;28;20037;-76
2024/03/31 06:03:22;;;;;;;15.00;4.63;;;9.80;99.90;;;;;;5004981;28;20088;-74
2024/03/31 06:05:48;;;;;;;13.07;3.88;;;9.80;99.90;;;;;;5003023;28;20047;-73
2024/03/31 06:08:14;;;;;;;9.63;4.38;;;9.80;99.90;;;;;;5007974;28;20036;-74
2024/03/31 06:10:40;;;;;;;22.88;8.10;;;9.80;99.90;;;;;;5009520;28;20033;-73
2024/03/31 06:13:05;;;;;;;8.73;3.70;;;9.90;99.90;;;;;;4991278;28;20042;-74
2024/03/31 06:15:31;;;;;;;15.98;3.92;;;10.00;99.90;;;;;;5010819;28;20109;-74
2024/03/31 06:17:57;;;;;;;14.05;6.30;;;10.10;99.90;;;;;;5010986;28;20029;-73
2024/03/31 06:20:25;;;;;;;48.17;16.45;;;9.90;99.90;;;;;;5008977;28;20052;-74
2024/03/31 06:22:51;;;;;;;18.70;4.80;;;9.90;99.90;;;;;;5007769;28;20457;-74
2024/03/31 06:25:16;;;;;;;11.18;3.80;;;10.00;99.90;;;;;;5009645;28;20034;-73
2024/03/31 06:27:42;;;;;;;6.47;3.30;;;10.20;99.90;;;;;;5025485;28;20105;-74
2024/03/31 06:30:10;;;;;;;24.85;4.28;;;10.20;99.90;;;;;;5007321;28;20418;-74
2024/03/31 06:32:36;;;;;;;5.88;3.85;;;10.50;99.90;;;;;;4990453;28;20745;-74
2024/03/31 06:35:03;;;;;;;11.85;3.30;;;10.60;99.90;;;;;;5005545;28;20069;-73
2024/03/31 06:37:29;;;;;;;10.15;3.95;;;10.50;99.90;;;;;;5010784;28;20040;-73
2024/03/31 06:39:55;;;;;;;10.00;3.53;;;10.60;99.90;;;;;;5006693;28;20034;-73
2024/03/31 06:42:20;;;;;;;10.73;4.05;;;10.60;99.90;;;;;;5002345;28;20045;-74
2024/03/31 06:44:46;;;;;;;8.00;3.67;;;10.80;99.90;;;;;;5005639;28;20052;-73
2024/03/31 06:47:12;;;;;;;7.25;2.85;;;11.00;99.90;;;;;;5004386;28;20502;-74
2024/03/31 06:49:39;;;;;;;8.70;3.13;;;11.00;99.90;;;;;;5005584;28;20042;-73
2024/03/31 06:52:05;;;;;;;10.70;2.95;;;11.20;99.90;;;;;;5006170;28;20049;-74
2024/03/31 06:54:30;;;;;;;8.02;3.00;;;11.30;99.90;;;;;;4993370;28;20038;-74
2024/03/31 06:56:57;;;;;;;16.30;2.65;;;11.50;99.90;;;;;;4992087;28;20037;-74
2024/03/31 06:59:22;;;;;;;9.02;2.35;;;11.60;99.90;;;;;;4991564;28;20030;-74
2024/03/31 07:01:48;;;;;;;14.07;3.25;;;11.70;99.90;;;;;;5011114;28;20113;-75
2024/03/31 07:04:15;;;;;;;13.70;4.32;;;11.90;99.90;;;;;;5009891;28;20041;-74
2024/03/31 07:06:41;;;;;;;5.70;3.03;;;11.80;99.90;;;;;;5010999;28;20490;-74
2024/03/31 07:09:07;;;;;;;14.68;4.22;;;11.90;99.90;;;;;;5009643;28;20046;-74
2024/03/31 07:11:33;;;;;;;8.70;3.50;;;11.90;99.90;;;;;;5009643;28;20087;-74
2024/03/31 07:13:59;;;;;;;19.50;3.60;;;12.00;99.90;;;;;;5008911;28;20041;-74
2024/03/31 07:16:26;;;;;;;9.52;3.40;;;12.00;99.90;;;;;;5010492;28;20556;-74
2024/03/31 07:18:51;;;;;;;8.40;3.40;;;12.00;99.90;;;;;;5009293;28;20125;-74
2024/03/31 07:21:17;;;;;;;18.15;4.15;;;12.00;99.90;;;;;;5010664;28;20574;-74
2024/03/31 07:23:46;;;;;;;9.25;3.67;;;12.10;99.90;;;;;;5009879;28;20044;-74
2024/03/31 07:26:13;;;;;;;14.05;4.28;;;12.10;99.90;;;;;;5005610;28;20080;-75
2024/03/31 07:28:39;;;;;;;5.47;3.03;;;12.30;99.90;;;;;;5009456;28;20037;-74
2024/03/31 07:31:05;;;;;;;17.80;2.75;;;12.40;99.90;;;;;;5006646;28;20503;-75
2024/03/31 07:33:30;;;;;;;9.18;2.63;;;12.40;99.90;;;;;;5002850;28;20037;-74
2024/03/31 07:35:58;;;;;;;20.88;4.78;;;12.40;99.90;;;;;;5010436;28;20041;-73
2024/03/31 07:38:24;;;;;;;12.27;2.53;;;12.20;99.90;;;;;;5003742;28;20398;-75
2024/03/31 07:40:51;;;;;;;4.00;2.03;;;12.20;99.90;;;;;;5008441;28;20026;-74
2024/03/31 07:43:24;;;;;;;15.93;2.40;;;12.30;99.90;;;;;;5006011;28;20475;-76
2024/03/31 07:45:50;;;;;;;30.17;10.20;;;12.40;99.90;;;;;;5009551;28;20445;-74
2024/03/31 07:48:16;;;;;;;16.73;2.58;;;12.70;99.90;;;;;;5009077;28;20038;-74
2024/03/31 07:50:42;;;;;;;8.85;2.97;;;12.60;99.90;;;;;;5010512;28;20030;-74
2024/03/31 07:53:08;;;;;;;15.73;2.53;;;12.70;99.90;;;;;;5005466;28;20061;-73
2024/03/31 07:55:34;;;;;;;10.05;2.53;;;13.00;99.90;;;;;;5010011;28;20119;-74
2024/03/31 07:58:00;;;;;;;9.18;3.35;;;13.00;99.90;;;;;;5003957;28;20057;-74
2024/03/31 08:00:25;;;;;;;10.38;4.35;;;13.00;99.90;;;;;;5014086;28;20482;-74
2024/03/31 08:02:51;;;;;;;11.43;2.30;;;13.10;99.90;;;;;;5007181;28;20030;-74
2024/03/31 08:05:18;;;;;;;9.35;2.10;;;13.30;99.90;;;;;;5013995;28;20036;-76
2024/03/31 08:07:43;;;;;;;10.90;2.28;;;13.40;99.90;;;;;;5012432;28;20069;-75
2024/03/31 08:10:09;;;;;;;12.43;1.75;;;13.50;99.90;;;;;;5012869;28;20066;-75
2024/03/31 08:12:35;;;;;;;13.15;2.97;;;13.70;99.90;;;;;;5006729;28;20026;-75
2024/03/31 08:15:01;;;;;;;12.93;1.20;;;13.90;99.90;;;;;;5014060;28;20034;-75
2024/03/31 08:17:26;;;;;;;23.45;3.20;;;13.90;99.90;;;;;;5011787;28;20109;-76
2024/03/31 08:19:52;;;;;;;7.78;3.67;;;14.00;99.90;;;;;;5014088;28;20121;-76
2024/03/31 08:22:18;;;;;;;10.60;2.50;;;14.20;99.90;;;;;;5006659;28;20045;-76
2024/03/31 08:24:44;;;;;;;10.50;2.22;;;14.40;99.90;;;;;;5014057;28;20033;-76
2024/03/31 08:27:09;;;;;;;13.60;1.45;;;14.40;99.90;;;;;;5006674;28;20096;-76
2024/03/31 08:29:35;;;;;;;7.78;1.38;;;14.10;99.90;;;;;;5013899;28;20030;-75
2024/03/31 08:32:01;;;;;;;6.28;1.20;;;14.20;99.90;;;;;;5007342;28;20049;-76
2024/03/31 08:34:27;;;;;;;4.78;1.65;;;14.40;99.90;;;;;;5012760;28;20037;-76
2024/03/31 08:36:53;;;;;;;13.23;1.55;;;14.60;99.90;;;;;;5007871;28;20494;-76
2024/03/31 08:39:19;;;;;;;4.68;1.00;;;14.70;99.90;;;;;;5011545;28;20030;-76
2024/03/31 08:41:51;;;;;;;23.88;2.53;;;14.70;99.90;;;;;;5009368;28;20117;-76
2024/03/31 08:44:17;;;;;;;5.45;1.65;;;14.80;99.90;;;;;;5011154;28;20026;-76
2024/03/31 08:46:43;;;;;;;5.57;1.17;;;14.90;99.90;;;;;;5012883;28;20080;-76
2024/03/31 08:49:10;;;;;;;6.55;1.60;;;15.20;99.90;;;;;;5012835;28;20030;-76
2024/03/31 08:51:40;;;;;;;8.10;2.53;;;14.90;99.90;;;;;;5013098;28;20463;-76
2024/03/31 08:54:06;;;;;;;7.80;1.42;;;15.10;99.90;;;;;;5005722;28;20069;-76
2024/03/31 08:56:32;;;;;;;7.28;1.70;;;15.30;99.90;;;;;;5011219;28;20552;-76
2024/03/31 08:59:00;;;;;;;7.57;1.52;;;15.50;99.90;;;;;;5011590;28;20041;-75
2024/03/31 09:01:27;;;;;;;8.15;1.67;;;15.50;99.90;;;;;;5011783;28;20071;-76
2024/03/31 09:03:55;;;;;;;15.77;2.25;;;15.30;99.90;;;;;;4995471;28;20538;-75
2024/03/31 09:06:23;;;;;;;7.32;1.50;;;15.20;99.90;;;;;;5011092;28;20113;-75
2024/03/31 09:09:04;;;;;;;14.95;2.15;;;15.30;99.90;;;;;;5011094;28;20030;-75
2024/03/31 09:11:31;;;;;;;7.15;2.15;;;15.30;99.90;;;;;;5012765;28;20030;-76
2024/03/31 09:13:57;;;;;;;4.07;1.35;;;15.50;99.90;;;;;;5011032;28;20395;-75
2024/03/31 09:16:24;;;;;;;5.88;2.05;;;15.60;99.90;;;;;;5012429;28;20038;-75
2024/03/31 09:18:50;;;;;;;11.38;2.22;;;15.60;99.90;;;;;;5007155;28;20546;-75
2024/03/31 09:21:16;;;;;;;11.98;2.60;;;15.60;99.90;;;;;;4994714;28;20026;-75
2024/03/31 09:23:41;;;;;;;23.42;4.38;;;15.60;99.90;;;;;;5011097;28;20034;-75
2024/03/31 09:26:08;;;;;;;15.07;1.80;;;15.70;99.90;;;;;;5011038;28;20029;-75
2024/03/31 09:28:36;;;;;;;6.55;1.98;;;15.90;99.90;;;;;;4994867;28;20026;-76
2024/03/31 09:31:03;;;;;;;10.70;2.33;;;15.60;99.90;;;;;;5011212;28;20613;-75
2024/03/31 09:33:37;;;;;;;11.77;2.17;;;15.80;99.90;;;;;;5006211;28;20052;-75
2024/03/31 09:36:05;;;;;;;5.45;1.60;;;15.90;99.90;;;;;;5012091;28;20022;-75
2024/03/31 09:38:31;;;;;;;8.13;2.10;;;16.10;99.90;;;;;;5010765;28;20822;-75
2024/03/31 09:40:58;;;;;;;8.18;2.33;;;16.30;99.90;;;;;;5012457;28;20037;-76
2024/03/31 09:43:23;;;;;;;6.63;2.67;;;16.60;99.90;;;;;;4992044;28;20113;-76
2024/03/31 09:45:49;;;;;;;13.35;1.90;;;16.60;99.90;;;;;;5008594;28;20122;-75
2024/03/31 09:48:24;;;;;;;11.60;1.58;;;16.30;99.90;;;;;;5010509;28;20072;-75
2024/03/31 09:51:06;;;;;;;14.23;2.97;;;16.20;99.90;;;;;;5010949;28;20387;-75
2024/03/31 09:53:35;;;;;;;14.23;3.47;;;16.60;99.90;;;;;;5010510;28;20026;-75
2024/03/31 09:56:10;;;;;;;15.52;3.22;;;16.60;99.90;;;;;;5010716;28;20034;-76
2024/03/31 09:58:36;;;;;;;10.05;2.78;;;16.50;99.90;;;;;;5007409;28;20038;-75
2024/03/31 10:01:05;;;;;;;11.35;2.90;;;16.50;99.90;;;;;;5006686;28;20033;-75
2024/03/31 10:03:43;;;;;;;8.40;3.25;;;16.60;99.90;;;;;;5010302;28;20025;-75
2024/03/31 10:06:12;;;;;;;16.95;2.33;;;16.50;99.90;;;;;;5010227;28;20030;-75
2024/03/31 10:08:38;;;;;;;12.02;3.13;;;16.40;99.90;;;;;;5009879;28;20053;-75
2024/03/31 10:11:05;;;;;;;7.82;2.40;;;16.40;99.90;;;;;;5010701;28;20064;-75
2024/03/31 10:13:31;;;;;;;14.23;1.98;;;16.70;99.90;;;;;;5010383;28;20033;-75
2024/03/31 10:15:58;;;;;;;59.25;25.95;;;16.50;99.90;;;;;;5010825;28;20030;-76
2024/03/31 10:18:24;;;;;;;22.02;3.97;;;16.70;99.90;;;;;;5006336;28;20411;-75
2024/03/31 10:20:51;;;;;;;27.88;4.40;;;17.20;99.90;;;;;;4993747;28;20025;-76
2024/03/31 10:23:24;;;;;;;6.57;3.08;;;17.70;99.90;;;;;;5009652;28;20018;-76
2024/03/31 10:25:52;;;;;;;10.50;2.03;;;18.00;99.90;;;;;;5011204;28;20021;-76
2024/03/31 10:28:19;;;;;;;19.55;3.63;;;18.50;99.90;;;;;;5005847;28;20034;-76
2024/03/31 10:30:45;;;;;;;3.47;1.40;;;18.50;99.90;;;;;;5008491;28;20491;-76
2024/03/31 10:33:11;;;;;;;24.15;3.42;;;18.60;99.90;;;;;;5006230;28;20030;-76
2024/03/31 10:35:40;;;;;;;5.00;1.90;;;19.00;99.90;;;;;;5009698;28;20402;-76
2024/03/31 10:38:11;;;;;;;12.43;2.83;;;19.30;99.90;;;;;;5009631;28;20180;-75
2024/03/31 10:40:37;;;;;;;12.65;3.00;;;19.40;99.90;;;;;;5010282;28;20034;-75
2024/03/31 10:43:05;;;;;;;15.50;2.83;;;19.60;99.90;;;;;;5009755;28;20029;-76
2024/03/31 10:45:31;;;;;;;17.42;2.83;;;18.90;99.90;;;;;;4993098;28;20030;-75
2024/03/31 10:47:57;;;;;;;23.17;3.72;;;19.40;99.90;;;;;;5005901;28;20352;-75
2024/03/31 10:50:26;;;;;;;5.82;2.60;;;19.60;99.90;;;;;;5009915;28;20034;-76
2024/03/31 10:52:52;;;;;;;11.80;2.45;;;19.70;99.90;;;;;;5009403;28;20026;-75
2024/03/31 10:55:20;;;;;;;11.55;2.60;;;19.60;99.90;;;;;;5009711;28;20560;-76
2024/03/31 10:57:58;;;;;;;12.13;3.08;;;19.00;99.90;;;;;;5008201;28;20037;-76
2024/03/31 11:00:24;;;;;;;12.05;2.08;;;18.80;99.90;;;;;;5008575;28;20089;-76
2024/03/31 11:02:53;;;;;;;5.90;1.50;;;19.40;99.90;;;;;;5008895;28;20022;-75
2024/03/31 11:05:21;;;;;;;14.80;2.72;;;19.40;99.90;;;;;;5000314;28;20470;-76
2024/03/31 11:07:48;;;;;;;7.88;1.20;;;19.90;99.90;;;;;;5001474;28;20115;-75
2024/03/31 11:10:15;;;;;;;12.98;1.95;;;19.70;99.90;;;;;;5021561;23;20034;-75
2024/03/31 11:12:43;;;;;;;13.50;1.85;;;19.90;99.90;;;;;;5011144;28;20375;-77
2024/03/31 11:15:10;;;;;;;14.77;2.13;;;19.70;99.90;;;;;;5010945;28;20037;-77
2024/03/31 11:17:36;;;;;;;22.73;1.60;;;19.20;99.90;;;;;;4995492;28;20479;-78
2024/03/31 11:20:05;;;;;;;9.88;1.80;;;19.10;99.90;;;;;;5014205;28;20038;-77
2024/03/31 11:22:32;;;;;;;4.13;1.90;;;19.90;99.90;;;;;;5018917;28;20505;-78
2024/03/31 11:24:59;;;;;;;9.20;1.58;;;20.00;99.90;;;;;;5020282;28;20033;-76
2024/03/31 11:27:26;;;;;;;7.13;1.65;;;20.20;99.40;;;;;;5008558;28;20052;-75
2024/03/31 11:29:53;;;;;;;3.55;0.75;;;21.20;97.30;;;;;;5009407;28;20097;-76
2024/03/31 11:32:19;;;;;;;24.42;2.63;;;20.50;98.00;;;;;;5008301;28;20034;-76
2024/03/31 11:34:46;;;;;;;15.60;2.28;;;19.90;99.80;;;;;;5014276;28;20391;-77
2024/03/31 11:37:12;;;;;;;10.90;2.22;;;20.00;99.90;;;;;;5013477;28;20081;-74
2024/03/31 11:39:38;;;;;;;13.93;1.40;;;19.60;99.90;;;;;;5015101;28;20799;-74
2024/03/31 11:42:05;;;;;;;6.68;2.00;;;20.30;99.60;;;;;;5013191;28;20153;-78
2024/03/31 11:44:32;;;;;;;9.13;1.27;;;20.30;99.20;;;;;;5013766;28;20022;-76
2024/03/31 11:47:05;;;;;;;13.48;2.22;;;19.60;99.40;;;;;;5008464;28;20390;-76
2024/03/31 11:49:34;;;;;;;7.43;2.00;;;19.20;99.90;;;;;;5013263;28;20033;-75
2024/03/31 11:52:00;;;;;;;11.50;2.75;;;20.00;99.60;;;;;;5012320;28;20052;-75
2024/03/31 11:54:27;;;;;;;8.93;1.20;;;20.10;98.70;;;;;;5013099;28;20402;-75
2024/03/31 11:56:53;;;;;;;7.55;1.42;;;19.60;99.60;;;;;;5012902;28;20034;-75
2024/03/31 11:59:21;;;;;;;7.13;1.90;;;19.30;99.40;;;;;;5001254;28;20585;-75
2024/03/31 12:02:00;;;;;;;10.95;1.55;;;19.30;99.90;;;;;;5028628;28;20131;-77
2024/03/31 12:04:26;;;;;;;7.90;1.23;;;19.40;99.70;;;;;;5013912;28;20033;-78
2024/03/31 12:06:53;;;;;;;10.15;2.28;;;19.80;99.20;;;;;;5013268;28;20053;-75
2024/03/31 12:09:21;;;;;;;7.45;1.45;;;19.60;99.60;;;;;;5012805;28;20146;-76
2024/03/31 12:11:47;;;;;;;15.90;2.42;;;19.80;99.40;;;;;;5013177;28;20084;-75
2024/03/31 12:14:17;;;;;;;11.88;1.23;;;19.60;99.10;;;;;;5013026;28;20132;-76
2024/03/31 12:16:44;;;;;;;11.27;1.87;;;19.50;99.50;;;;;;5012228;28;20049;-76
2024/03/31 12:19:14;;;;;;;12.50;1.92;;;19.30;99.90;;;;;;5017201;28;20476;-75
2024/03/31 12:21:40;;;;;;;10.75;1.10;;;19.20;99.80;;;;;;5013363;28;20034;-74
2024/03/31 12:24:07;;;;;;;8.82;1.38;;;19.00;99.90;;;;;;5011725;28;20036;-73
2024/03/31 12:26:34;;;;;;;10.45;1.85;;;19.10;99.90;;;;;;5010804;28;20022;-77
2024/03/31 12:29:00;;;;;;;4.15;0.98;;;18.80;99.90;;;;;;5011918;28;20033;-74
2024/03/31 12:31:26;;;;;;;9.98;2.10;;;19.00;99.90;;;;;;5009826;28;20030;-76
2024/03/31 12:33:53;;;;;;;7.53;1.63;;;18.80;99.90;;;;;;5013141;28;20072;-75
2024/03/31 12:36:20;;;;;;;1.58;0.82;;;18.90;99.90;;;;;;5011003;28;20049;-76
2024/03/31 12:38:47;;;;;;;17.90;1.48;;;19.30;99.90;;;;;;5009091;28;20036;-75